sensor_id;sensor_type;location;lat;lon;timestamp;temperature;humidity
63435;DHT22;68814;50.872;5.306;2023-08-01T06:35:04;16.40;99.90
63435;DHT22;68814;50.872;5.306;2023-08-01T06:37:29;16.40;99.90
63435;DHT22;68814;50.872;5.306;2023-08-01T06:39:57;16.50;99.90
63435;DHT22;68814;50.872;5.306;2023-08-01T06:42:23;16.50;99.90
63435;DHT22;68814;50.872;5.306;2023-08-01T06:44:50;16.60;99.90
63435;DHT22;68814;50.872;5.306;2023-08-01T06:47:16;16.60;99.90
63435;DHT22;68814;50.872;5.306;2023-08-01T06:49:41;16.60;99.90
63435;DHT22;68814;50.872;5.306;2023-08-01T06:52:07;16.60;99.90
63435;DHT22;68814;50.872;5.306;2023-08-01T06:54:33;16.70;99.90
63435;DHT22;68814;50.872;5.306;2023-08-01T06:56:58;16.70;99.90
63435;DHT22;68814;50.872;5.306;2023-08-01T06:59:25;16.70;99.90
63435;DHT22;68814;50.872;5.306;2023-08-01T07:01:51;16.80;99.90
63435;DHT22;68814;50.872;5.306;2023-08-01T07:04:17;16.80;99.90
63435;DHT22;68814;50.872;5.306;2023-08-01T07:06:42;16.80;99.80
63435;DHT22;68814;50.872;5.306;2023-08-01T07:09:08;16.80;99.90
63435;DHT22;68814;50.872;5.306;2023-08-01T07:11:35;16.80;99.50
63435;DHT22;68814;50.872;5.306;2023-08-01T07:14:01;16.90;99.70
63435;DHT22;68814;50.872;5.306;2023-08-01T07:16:26;17.00;99.80
63435;DHT22;68814;50.872;5.306;2023-08-01T07:18:52;17.00;99.70
63435;DHT22;68814;50.872;5.306;2023-08-01T07:21:18;17.00;99.40
63435;DHT22;68814;50.872;5.306;2023-08-01T07:23:43;17.10;99.50
63435;DHT22;68814;50.872;5.306;2023-08-01T07:26:10;17.10;99.40
63435;DHT22;68814;50.872;5.306;2023-08-01T07:28:35;17.10;98.90
63435;DHT22;68814;50.872;5.306;2023-08-01T07:31:03;17.10;99.30
63435;DHT22;68814;50.872;5.306;2023-08-01T07:33:30;17.10;99.40
63435;DHT22;68814;50.872;5.306;2023-08-01T07:35:55;17.20;99.20
63435;DHT22;68814;50.872;5.306;2023-08-01T07:38:21;17.20;99.40
63435;DHT22;68814;50.872;5.306;2023-08-01T07:40:47;17.40;99.40
63435;DHT22;68814;50.872;5.306;2023-08-01T07:43:13;17.40;99.10
63435;DHT22;68814;50.872;5.306;2023-08-01T07:45:38;17.50;99.20
63435;DHT22;68814;50.872;5.306;2023-08-01T07:48:04;17.50;98.60
63435;DHT22;68814;50.872;5.306;2023-08-01T07:50:30;17.60;98.40
63435;DHT22;68814;50.872;5.306;2023-08-01T07:52:56;17.70;98.20
63435;DHT22;68814;50.872;5.306;2023-08-01T07:55:23;17.70;97.70
63435;DHT22;68814;50.872;5.306;2023-08-01T07:57:48;17.70;97.90
63435;DHT22;68814;50.872;5.306;2023-08-01T08:00:14;17.70;97.90
63435;DHT22;68814;50.872;5.306;2023-08-01T08:02:41;17.80;97.80
63435;DHT22;68814;50.872;5.306;2023-08-01T08:05:07;17.90;98.00
63435;DHT22;68814;50.872;5.306;2023-08-01T08:07:33;18.00;97.10
63435;DHT22;68814;50.872;5.306;2023-08-01T08:10:04;18.10;97.00
63435;DHT22;68814;50.872;5.306;2023-08-01T08:12:30;18.10;96.60
63435;DHT22;68814;50.872;5.306;2023-08-01T08:14:56;18.20;96.80
63435;DHT22;68814;50.872;5.306;2023-08-01T08:17:22;18.20;96.20
63435;DHT22;68814;50.872;5.306;2023-08-01T08:19:48;18.20;96.30
63435;DHT22;68814;50.872;5.306;2023-08-01T08:22:13;18.20;96.10
63435;DHT22;68814;50.872;5.306;2023-08-01T08:24:39;18.10;95.00
63435;DHT22;68814;50.872;5.306;2023-08-01T08:27:05;18.10;95.30
63435;DHT22;68814;50.872;5.306;2023-08-01T08:29:32;18.00;94.90
63435;DHT22;68814;50.872;5.306;2023-08-01T08:31:58;18.00;95.60
63435;DHT22;68814;50.872;5.306;2023-08-01T08:34:24;18.10;95.50
63435;DHT22;68814;50.872;5.306;2023-08-01T08:36:50;18.10;94.90
63435;DHT22;68814;50.872;5.306;2023-08-01T08:39:19;18.10;94.70
63435;DHT22;68814;50.872;5.306;2023-08-01T08:41:49;18.10;94.40
63435;DHT22;68814;50.872;5.306;2023-08-01T08:44:20;18.10;94.70
63435;DHT22;68814;50.872;5.306;2023-08-01T08:46:51;18.20;94.80
63435;DHT22;68814;50.872;5.306;2023-08-01T08:49:19;18.20;95.00
63435;DHT22;68814;50.872;5.306;2023-08-01T08:51:46;18.30;94.70
63435;DHT22;68814;50.872;5.306;2023-08-01T08:54:13;18.30;94.40
63435;DHT22;68814;50.872;5.306;2023-08-01T08:56:40;18.30;95.00
63435;DHT22;68814;50.872;5.306;2023-08-01T08:59:09;18.30;95.30
63435;DHT22;68814;50.872;5.306;2023-08-01T09:01:38;18.40;95.90
63435;DHT22;68814;50.872;5.306;2023-08-01T09:04:05;18.50;95.60
63435;DHT22;68814;50.872;5.306;2023-08-01T09:06:54;18.60;95.20
63435;DHT22;68814;50.872;5.306;2023-08-01T09:09:20;18.70;94.70
63435;DHT22;68814;50.872;5.306;2023-08-01T09:11:48;18.80;94.20
63435;DHT22;68814;50.872;5.306;2023-08-01T09:14:15;18.90;93.90
63435;DHT22;68814;50.872;5.306;2023-08-01T09:16:42;19.00;93.40
63435;DHT22;68814;50.872;5.306;2023-08-01T09:19:08;19.00;93.80
63435;DHT22;68814;50.872;5.306;2023-08-01T09:21:36;19.10;92.50
63435;DHT22;68814;50.872;5.306;2023-08-01T09:24:15;19.20;92.10
63435;DHT22;68814;50.872;5.306;2023-08-01T09:26:42;19.20;92.40
63435;DHT22;68814;50.872;5.306;2023-08-01T09:29:08;19.20;92.60
63435;DHT22;68814;50.872;5.306;2023-08-01T09:31:39;19.30;92.90
63435;DHT22;68814;50.872;5.306;2023-08-01T09:34:17;19.40;91.90
63435;DHT22;68814;50.872;5.306;2023-08-01T09:36:42;19.50;92.40
63435;DHT22;68814;50.872;5.306;2023-08-01T09:39:08;19.60;91.70
63435;DHT22;68814;50.872;5.306;2023-08-01T09:41:34;19.70;91.20
63435;DHT22;68814;50.872;5.306;2023-08-01T09:43:59;19.80;91.00
63435;DHT22;68814;50.872;5.306;2023-08-01T09:46:25;19.80;89.90
63435;DHT22;68814;50.872;5.306;2023-08-01T09:48:51;19.90;91.10
63435;DHT22;68814;50.872;5.306;2023-08-01T09:51:18;20.00;91.30
63435;DHT22;68814;50.872;5.306;2023-08-01T09:53:55;20.20;91.00
63435;DHT22;68814;50.872;5.306;2023-08-01T09:56:24;20.30;91.00
63435;DHT22;68814;50.872;5.306;2023-08-01T09:58:51;20.50;90.90
63435;DHT22;68814;50.872;5.306;2023-08-01T10:01:19;20.60;86.80
63435;DHT22;68814;50.872;5.306;2023-08-01T10:03:47;20.60;90.40
63435;DHT22;68814;50.872;5.306;2023-08-01T10:06:20;20.70;90.30
63435;DHT22;68814;50.872;5.306;2023-08-01T10:08:47;20.80;89.10
63435;DHT22;68814;50.872;5.306;2023-08-01T10:11:18;20.80;89.80
63435;DHT22;68814;50.872;5.306;2023-08-01T10:13:44;20.90;90.20
63435;DHT22;68814;50.872;5.306;2023-08-01T10:16:11;20.90;91.80
63435;DHT22;68814;50.872;5.306;2023-08-01T10:18:38;21.10;90.30
63435;DHT22;68814;50.872;5.306;2023-08-01T10:21:06;21.10;88.80
63435;DHT22;68814;50.872;5.306;2023-08-01T10:23:35;21.10;90.10
63435;DHT22;68814;50.872;5.306;2023-08-01T10:26:05;21.10;86.60
63435;DHT22;68814;50.872;5.306;2023-08-01T10:28:37;20.90;86.90
63435;DHT22;68814;50.872;5.306;2023-08-01T10:33:34;20.80;88.60
63435;DHT22;68814;50.872;5.306;2023-08-01T10:36:00;20.80;89.30
63435;DHT22;68814;50.872;5.306;2023-08-01T10:38:25;20.90;87.80
63435;DHT22;68814;50.872;5.306;2023-08-01T10:40:51;20.90;86.50
63435;DHT22;68814;50.872;5.306;2023-08-01T10:43:24;21.00;86.10
63435;DHT22;68814;50.872;5.306;2023-08-01T10:46:03;21.00;85.10
63435;DHT22;68814;50.872;5.306;2023-08-01T10:48:29;21.00;84.60
63435;DHT22;68814;50.872;5.306;2023-08-01T10:50:57;20.90;84.40
63435;DHT22;68814;50.872;5.306;2023-08-01T10:53:23;20.90;86.00
63435;DHT22;68814;50.872;5.306;2023-08-01T10:55:49;20.90;87.30
63435;DHT22;68814;50.872;5.306;2023-08-01T10:58:15;21.00;88.90
63435;DHT22;68814;50.872;5.306;2023-08-01T11:00:44;21.00;89.40
63435;DHT22;68814;50.872;5.306;2023-08-01T11:03:10;21.00;88.60
63435;DHT22;68814;50.872;5.306;2023-08-01T11:05:35;21.00;88.60
63435;DHT22;68814;50.872;5.306;2023-08-01T11:08:02;21.00;90.00
63435;DHT22;68814;50.872;5.306;2023-08-01T11:10:30;20.90;90.40
63435;DHT22;68814;50.872;5.306;2023-08-01T11:12:56;20.90;90.20
63435;DHT22;68814;50.872;5.306;2023-08-01T11:15:22;20.90;90.20
63435;DHT22;68814;50.872;5.306;2023-08-01T11:17:50;20.90;90.30
63435;DHT22;68814;50.872;5.306;2023-08-01T11:20:16;21.00;88.70
63435;DHT22;68814;50.872;5.306;2023-08-01T11:22:56;21.00;89.90
63435;DHT22;68814;50.872;5.306;2023-08-01T11:25:40;21.20;90.70
63435;DHT22;68814;50.872;5.306;2023-08-01T11:28:16;21.40;88.50
63435;DHT22;68814;50.872;5.306;2023-08-01T11:30:42;21.50;87.70
63435;DHT22;68814;50.872;5.306;2023-08-01T11:33:16;21.60;87.00
63435;DHT22;68814;50.872;5.306;2023-08-01T11:35:42;21.70;86.80
63435;DHT22;68814;50.872;5.306;2023-08-01T11:38:08;21.80;86.90
63435;DHT22;68814;50.872;5.306;2023-08-01T11:40:34;21.90;86.10
63435;DHT22;68814;50.872;5.306;2023-08-01T11:43:00;22.10;85.80
63435;DHT22;68814;50.872;5.306;2023-08-01T11:45:26;22.10;78.40
63435;DHT22;68814;50.872;5.306;2023-08-01T11:47:51;22.20;79.40
63435;DHT22;68814;50.872;5.306;2023-08-01T11:50:22;22.40;78.20
63435;DHT22;68814;50.872;5.306;2023-08-01T11:52:51;22.40;76.40
63435;DHT22;68814;50.872;5.306;2023-08-01T11:55:22;22.50;76.00
63435;DHT22;68814;50.872;5.306;2023-08-01T11:57:57;22.50;76.80
63435;DHT22;68814;50.872;5.306;2023-08-01T12:00:25;22.50;76.50
63435;DHT22;68814;50.872;5.306;2023-08-01T12:02:51;22.50;76.10
63435;DHT22;68814;50.872;5.306;2023-08-01T12:05:24;22.60;75.90
63435;DHT22;68814;50.872;5.306;2023-08-01T12:07:52;22.80;76.50
63435;DHT22;68814;50.872;5.306;2023-08-01T12:10:18;22.90;76.30
63435;DHT22;68814;50.872;5.306;2023-08-01T12:12:47;22.80;73.50
63435;DHT22;68814;50.872;5.306;2023-08-01T12:15:14;22.60;71.80
63435;DHT22;68814;50.872;5.306;2023-08-01T12:17:40;22.40;71.20
63435;DHT22;68814;50.872;5.306;2023-08-01T12:20:07;22.20;72.10
63435;DHT22;68814;50.872;5.306;2023-08-01T12:22:33;22.00;74.10
63435;DHT22;68814;50.872;5.306;2023-08-01T12:24:58;21.80;74.00
63435;DHT22;68814;50.872;5.306;2023-08-01T12:27:24;21.70;75.90
63435;DHT22;68814;50.872;5.306;2023-08-01T12:29:49;21.60;76.50
63435;DHT22;68814;50.872;5.306;2023-08-01T12:32:15;21.60;77.30
63435;DHT22;68814;50.872;5.306;2023-08-01T12:34:41;21.60;77.50
63435;DHT22;68814;50.872;5.306;2023-08-01T12:37:06;21.70;77.50
63435;DHT22;68814;50.872;5.306;2023-08-01T12:39:32;21.70;78.70
63435;DHT22;68814;50.872;5.306;2023-08-01T12:41:57;21.60;78.20
63435;DHT22;68814;50.872;5.306;2023-08-01T12:44:23;21.50;77.80
63435;DHT22;68814;50.872;5.306;2023-08-01T12:46:49;21.30;78.10
63435;DHT22;68814;50.872;5.306;2023-08-01T12:49:15;21.10;80.20
63435;DHT22;68814;50.872;5.306;2023-08-01T12:51:40;20.90;81.70
63435;DHT22;68814;50.872;5.306;2023-08-01T12:54:06;20.90;83.70
63435;DHT22;68814;50.872;5.306;2023-08-01T12:56:32;20.90;85.70
63435;DHT22;68814;50.872;5.306;2023-08-01T12:58:58;20.90;86.60
63435;DHT22;68814;50.872;5.306;2023-08-01T13:01:26;20.90;89.10
63435;DHT22;68814;50.872;5.306;2023-08-01T13:03:52;21.00;83.30
63435;DHT22;68814;50.872;5.306;2023-08-01T13:06:17;21.20;88.80
63435;DHT22;68814;50.872;5.306;2023-08-01T13:08:43;21.40;85.60
63435;DHT22;68814;50.872;5.306;2023-08-01T13:11:15;21.70;82.50
63435;DHT22;68814;50.872;5.306;2023-08-01T13:13:41;22.20;80.10
63435;DHT22;68814;50.872;5.306;2023-08-01T13:16:07;22.40;80.20
63435;DHT22;68814;50.872;5.306;2023-08-01T13:18:33;22.60;75.10
63435;DHT22;68814;50.872;5.306;2023-08-01T13:21:00;22.50;74.80
63435;DHT22;68814;50.872;5.306;2023-08-01T13:23:26;22.40;75.50
63435;DHT22;68814;50.872;5.306;2023-08-01T13:25:52;22.40;76.10
63435;DHT22;68814;50.872;5.306;2023-08-01T13:28:18;22.40;76.20
63435;DHT22;68814;50.872;5.306;2023-08-01T13:30:44;22.20;75.60
63435;DHT22;68814;50.872;5.306;2023-08-01T13:33:09;22.00;75.10
63435;DHT22;68814;50.872;5.306;2023-08-01T13:35:35;21.70;75.50
63435;DHT22;68814;50.872;5.306;2023-08-01T13:38:01;21.50;76.50
63435;DHT22;68814;50.872;5.306;2023-08-01T13:40:28;21.30;77.00
63435;DHT22;68814;50.872;5.306;2023-08-01T13:42:54;21.10;78.30
63435;DHT22;68814;50.872;5.306;2023-08-01T13:45:19;21.00;80.30
63435;DHT22;68814;50.872;5.306;2023-08-01T13:47:45;20.90;78.00
63435;DHT22;68814;50.872;5.306;2023-08-01T13:50:11;20.60;79.00
63435;DHT22;68814;50.872;5.306;2023-08-01T13:52:37;20.50;80.20
63435;DHT22;68814;50.872;5.306;2023-08-01T13:55:03;20.40;81.10
63435;DHT22;68814;50.872;5.306;2023-08-01T13:57:29;20.20;80.70
63435;DHT22;68814;50.872;5.306;2023-08-01T13:59:55;20.10;82.10
63435;DHT22;68814;50.872;5.306;2023-08-01T14:02:20;19.90;81.60
63435;DHT22;68814;50.872;5.306;2023-08-01T14:04:46;19.80;82.60
63435;DHT22;68814;50.872;5.306;2023-08-01T14:07:11;19.80;83.40
63435;DHT22;68814;50.872;5.306;2023-08-01T14:09:37;19.70;84.00
63435;DHT22;68814;50.872;5.306;2023-08-01T14:12:03;19.80;84.10
63435;DHT22;68814;50.872;5.306;2023-08-01T14:14:29;19.90;84.00
63435;DHT22;68814;50.872;5.306;2023-08-01T14:16:55;20.00;83.10
63435;DHT22;68814;50.872;5.306;2023-08-01T14:19:20;20.20;83.10
63435;DHT22;68814;50.872;5.306;2023-08-01T14:21:46;20.40;82.90
63435;DHT22;68814;50.872;5.306;2023-08-01T14:24:12;20.70;83.60
63435;DHT22;68814;50.872;5.306;2023-08-01T14:26:37;21.00;78.70
63435;DHT22;68814;50.872;5.306;2023-08-01T14:29:04;21.20;79.20
63435;DHT22;68814;50.872;5.306;2023-08-01T14:31:30;21.30;78.10
63435;DHT22;68814;50.872;5.306;2023-08-01T14:33:55;21.50;77.70
63435;DHT22;68814;50.872;5.306;2023-08-01T14:36:21;21.60;75.90
63435;DHT22;68814;50.872;5.306;2023-08-01T14:38:47;21.70;76.30
63435;DHT22;68814;50.872;5.306;2023-08-01T14:41:19;21.90;74.00
63435;DHT22;68814;50.872;5.306;2023-08-01T14:43:45;22.10;75.20
63435;DHT22;68814;50.872;5.306;2023-08-01T14:46:10;22.30;73.70
63435;DHT22;68814;50.872;5.306;2023-08-01T14:48:36;22.50;71.30
63435;DHT22;68814;50.872;5.306;2023-08-01T14:51:06;22.50;71.40
63435;DHT22;68814;50.872;5.306;2023-08-01T14:53:32;22.60;72.00
63435;DHT22;68814;50.872;5.306;2023-08-01T14:55:58;22.50;70.20
63435;DHT22;68814;50.872;5.306;2023-08-01T14:58:29;22.50;71.80
63435;DHT22;68814;50.872;5.306;2023-08-01T15:00:55;22.40;71.10
63435;DHT22;68814;50.872;5.306;2023-08-01T15:03:21;22.20;71.40
63435;DHT22;68814;50.872;5.306;2023-08-01T15:05:46;22.00;72.60
63435;DHT22;68814;50.872;5.306;2023-08-01T15:08:12;21.80;71.60
63435;DHT22;68814;50.872;5.306;2023-08-01T15:10:38;21.60;71.90
63435;DHT22;68814;50.872;5.306;2023-08-01T15:13:06;21.40;72.80
63435;DHT22;68814;50.872;5.306;2023-08-01T15:15:36;21.10;73.40
63435;DHT22;68814;50.872;5.306;2023-08-01T15:18:02;20.90;74.90
63435;DHT22;68814;50.872;5.306;2023-08-01T15:20:32;20.80;76.30
63435;DHT22;68814;50.872;5.306;2023-08-01T15:23:03;20.70;77.00
63435;DHT22;68814;50.872;5.306;2023-08-01T15:25:29;20.60;76.80
63435;DHT22;68814;50.872;5.306;2023-08-01T15:27:55;20.40;77.90
63435;DHT22;68814;50.872;5.306;2023-08-01T15:30:20;20.40;79.40
63435;DHT22;68814;50.872;5.306;2023-08-01T15:32:46;20.30;80.70
63435;DHT22;68814;50.872;5.306;2023-08-01T15:35:12;20.10;82.20
63435;DHT22;68814;50.872;5.306;2023-08-01T15:37:39;19.90;84.50
63435;DHT22;68814;50.872;5.306;2023-08-01T15:40:05;19.70;86.00
63435;DHT22;68814;50.872;5.306;2023-08-01T15:42:34;19.60;86.50
63435;DHT22;68814;50.872;5.306;2023-08-01T15:45:00;19.50;86.50
63435;DHT22;68814;50.872;5.306;2023-08-01T15:47:26;19.40;86.20
63435;DHT22;68814;50.872;5.306;2023-08-01T15:49:52;19.20;86.70
63435;DHT22;68814;50.872;5.306;2023-08-01T15:52:17;19.10;87.20
63435;DHT22;68814;50.872;5.306;2023-08-01T15:54:43;19.10;88.30
63435;DHT22;68814;50.872;5.306;2023-08-01T15:57:09;19.10;88.20
63435;DHT22;68814;50.872;5.306;2023-08-01T15:59:35;19.10;87.50
63435;DHT22;68814;50.872;5.306;2023-08-01T16:02:00;19.00;87.30
63435;DHT22;68814;50.872;5.306;2023-08-01T16:04:26;19.00;88.00
63435;DHT22;68814;50.872;5.306;2023-08-01T16:06:51;19.00;88.30
63435;DHT22;68814;50.872;5.306;2023-08-01T16:09:17;19.10;87.90
63435;DHT22;68814;50.872;5.306;2023-08-01T16:11:43;19.10;88.10
63435;DHT22;68814;50.872;5.306;2023-08-01T16:14:08;19.10;87.70
63435;DHT22;68814;50.872;5.306;2023-08-01T16:16:34;19.10;87.30
63435;DHT22;68814;50.872;5.306;2023-08-01T16:19:00;19.10;86.90
63435;DHT22;68814;50.872;5.306;2023-08-01T16:21:25;19.00;86.70
63435;DHT22;68814;50.872;5.306;2023-08-01T16:23:51;19.00;88.30
63435;DHT22;68814;50.872;5.306;2023-08-01T16:26:16;19.00;87.80
63435;DHT22;68814;50.872;5.306;2023-08-01T16:28:42;18.90;88.60
63435;DHT22;68814;50.872;5.306;2023-08-01T16:31:08;18.90;89.90
63435;DHT22;68814;50.872;5.306;2023-08-01T16:33:33;18.70;90.00
63435;DHT22;68814;50.872;5.306;2023-08-01T16:35:59;18.70;90.20
63435;DHT22;68814;50.872;5.306;2023-08-01T16:38:24;18.70;90.80
63435;DHT22;68814;50.872;5.306;2023-08-01T16:40:50;18.70;90.50
63435;DHT22;68814;50.872;5.306;2023-08-01T16:43:15;18.70;90.80
63435;DHT22;68814;50.872;5.306;2023-08-01T16:45:41;18.70;90.50
63435;DHT22;68814;50.872;5.306;2023-08-01T16:48:07;18.70;90.50
63435;DHT22;68814;50.872;5.306;2023-08-01T16:50:33;18.70;90.40
63435;DHT22;68814;50.872;5.306;2023-08-01T16:52:58;18.80;90.50
63435;DHT22;68814;50.872;5.306;2023-08-01T16:55:24;18.80;90.80
63435;DHT22;68814;50.872;5.306;2023-08-01T16:57:50;18.90;90.40
63435;DHT22;68814;50.872;5.306;2023-08-01T17:00:15;18.90;90.40
63435;DHT22;68814;50.872;5.306;2023-08-01T17:02:41;18.90;90.50
63435;DHT22;68814;50.872;5.306;2023-08-01T17:05:07;18.90;90.10
63435;DHT22;68814;50.872;5.306;2023-08-01T17:07:33;18.90;90.30
63435;DHT22;68814;50.872;5.306;2023-08-01T17:10:02;18.90;90.10
63435;DHT22;68814;50.872;5.306;2023-08-01T17:12:28;18.80;90.30
63435;DHT22;68814;50.872;5.306;2023-08-01T17:14:53;18.80;90.10
63435;DHT22;68814;50.872;5.306;2023-08-01T17:17:19;18.80;90.40
63435;DHT22;68814;50.872;5.306;2023-08-01T17:19:46;18.80;90.40
63435;DHT22;68814;50.872;5.306;2023-08-01T17:22:12;18.90;90.30
63435;DHT22;68814;50.872;5.306;2023-08-01T17:24:38;18.90;90.20
63435;DHT22;68814;50.872;5.306;2023-08-01T17:27:04;18.90;90.50
63435;DHT22;68814;50.872;5.306;2023-08-01T17:29:30;19.00;90.70
63435;DHT22;68814;50.872;5.306;2023-08-01T17:31:55;19.20;90.70
63435;DHT22;68814;50.872;5.306;2023-08-01T17:34:21;19.50;90.00
63435;DHT22;68814;50.872;5.306;2023-08-01T17:36:47;19.80;89.90
63435;DHT22;68814;50.872;5.306;2023-08-01T17:39:12;20.20;87.20
63435;DHT22;68814;50.872;5.306;2023-08-01T17:41:38;20.50;85.70
63435;DHT22;68814;50.872;5.306;2023-08-01T17:44:04;20.90;83.60
63435;DHT22;68814;50.872;5.306;2023-08-01T17:46:29;21.00;83.40
63435;DHT22;68814;50.872;5.306;2023-08-01T17:48:55;21.10;83.50
63435;DHT22;68814;50.872;5.306;2023-08-01T17:51:21;21.00;81.80
63435;DHT22;68814;50.872;5.306;2023-08-01T17:53:47;20.70;83.00
63435;DHT22;68814;50.872;5.306;2023-08-01T17:56:13;20.60;84.10
63435;DHT22;68814;50.872;5.306;2023-08-01T17:58:39;20.50;85.10
63435;DHT22;68814;50.872;5.306;2023-08-01T18:01:08;20.40;84.90
63435;DHT22;68814;50.872;5.306;2023-08-01T18:03:35;20.30;85.70
63435;DHT22;68814;50.872;5.306;2023-08-01T18:06:09;20.20;86.70
63435;DHT22;68814;50.872;5.306;2023-08-01T18:08:35;20.20;87.10
63435;DHT22;68814;50.872;5.306;2023-08-01T18:11:01;20.10;87.90
63435;DHT22;68814;50.872;5.306;2023-08-01T18:13:27;20.10;87.70
63435;DHT22;68814;50.872;5.306;2023-08-01T18:15:53;20.00;88.30
63435;DHT22;68814;50.872;5.306;2023-08-01T18:18:18;20.00;88.60
63435;DHT22;68814;50.872;5.306;2023-08-01T18:20:45;19.90;88.60
63435;DHT22;68814;50.872;5.306;2023-08-01T18:23:11;19.80;89.40
63435;DHT22;68814;50.872;5.306;2023-08-01T18:25:36;19.80;89.80
63435;DHT22;68814;50.872;5.306;2023-08-01T18:28:02;19.70;89.90
63435;DHT22;68814;50.872;5.306;2023-08-01T18:30:29;19.80;90.20
63435;DHT22;68814;50.872;5.306;2023-08-01T18:32:54;19.80;90.20
63435;DHT22;68814;50.872;5.306;2023-08-01T18:35:20;19.80;90.50
63435;DHT22;68814;50.872;5.306;2023-08-01T18:37:46;19.80;90.60
63435;DHT22;68814;50.872;5.306;2023-08-01T18:40:12;19.70;91.30
63435;DHT22;68814;50.872;5.306;2023-08-01T18:42:40;19.60;92.00
63435;DHT22;68814;50.872;5.306;2023-08-01T18:45:06;19.60;92.00
63435;DHT22;68814;50.872;5.306;2023-08-01T18:47:32;19.70;91.80
63435;DHT22;68814;50.872;5.306;2023-08-01T18:49:57;19.70;92.10
63435;DHT22;68814;50.872;5.306;2023-08-01T18:52:23;19.80;91.70
63435;DHT22;68814;50.872;5.306;2023-08-01T18:54:52;19.80;91.80
63435;DHT22;68814;50.872;5.306;2023-08-01T18:57:17;19.70;91.90
63435;DHT22;68814;50.872;5.306;2023-08-01T18:59:43;19.70;92.30
63435;DHT22;68814;50.872;5.306;2023-08-01T19:02:09;19.60;92.20
63435;DHT22;68814;50.872;5.306;2023-08-01T19:04:34;19.60;92.00
63435;DHT22;68814;50.872;5.306;2023-08-01T19:07:00;19.50;92.40
63435;DHT22;68814;50.872;5.306;2023-08-01T19:09:26;19.50;92.80
63435;DHT22;68814;50.872;5.306;2023-08-01T19:11:51;19.40;92.80
63435;DHT22;68814;50.872;5.306;2023-08-01T19:14:17;19.40;92.80
63435;DHT22;68814;50.872;5.306;2023-08-01T19:16:43;19.30;93.10
63435;DHT22;68814;50.872;5.306;2023-08-01T19:19:08;19.30;93.30
63435;DHT22;68814;50.872;5.306;2023-08-01T19:21:35;19.20;93.50
63435;DHT22;68814;50.872;5.306;2023-08-01T19:24:01;19.10;93.70
63435;DHT22;68814;50.872;5.306;2023-08-01T19:26:26;19.10;93.90
63435;DHT22;68814;50.872;5.306;2023-08-01T19:28:52;19.00;94.10
63435;DHT22;68814;50.872;5.306;2023-08-01T19:31:18;18.90;94.20
63435;DHT22;68814;50.872;5.306;2023-08-01T19:33:45;18.80;94.50
63435;DHT22;68814;50.872;5.306;2023-08-01T19:36:12;18.70;94.80
63435;DHT22;68814;50.872;5.306;2023-08-01T19:38:38;18.70;94.80
63435;DHT22;68814;50.872;5.306;2023-08-01T19:41:03;18.60;95.10
63435;DHT22;68814;50.872;5.306;2023-08-01T19:43:29;18.50;95.30
63435;DHT22;68814;50.872;5.306;2023-08-01T19:45:55;18.50;95.50
63435;DHT22;68814;50.872;5.306;2023-08-01T19:48:20;18.40;95.60
63435;DHT22;68814;50.872;5.306;2023-08-01T19:50:46;18.30;95.80
63435;DHT22;68814;50.872;5.306;2023-08-01T19:53:18;18.30;95.90
63435;DHT22;68814;50.872;5.306;2023-08-01T19:55:44;18.20;96.10
63435;DHT22;68814;50.872;5.306;2023-08-01T19:58:09;18.20;96.30
63435;DHT22;68814;50.872;5.306;2023-08-01T20:00:35;18.10;96.30
63435;DHT22;68814;50.872;5.306;2023-08-01T20:03:01;18.10;96.50
63435;DHT22;68814;50.872;5.306;2023-08-01T20:05:26;18.10;96.50
63435;DHT22;68814;50.872;5.306;2023-08-01T20:07:52;18.10;96.60
63435;DHT22;68814;50.872;5.306;2023-08-01T20:10:18;18.00;96.70
63435;DHT22;68814;50.872;5.306;2023-08-01T20:12:43;18.00;96.70
63435;DHT22;68814;50.872;5.306;2023-08-01T20:15:09;18.00;96.70
63435;DHT22;68814;50.872;5.306;2023-08-01T20:17:35;18.00;96.70
63435;DHT22;68814;50.872;5.306;2023-08-01T20:20:01;17.90;96.70
63435;DHT22;68814;50.872;5.306;2023-08-01T20:22:26;17.90;96.60
63435;DHT22;68814;50.872;5.306;2023-08-01T20:24:54;17.90;96.60
63435;DHT22;68814;50.872;5.306;2023-08-01T20:27:19;17.80;96.70
63435;DHT22;68814;50.872;5.306;2023-08-01T20:29:45;17.80;96.50
63435;DHT22;68814;50.872;5.306;2023-08-01T20:32:11;17.70;96.70
63435;DHT22;68814;50.872;5.306;2023-08-01T20:34:37;17.70;96.40
63435;DHT22;68814;50.872;5.306;2023-08-01T20:37:02;17.60;96.40
63435;DHT22;68814;50.872;5.306;2023-08-01T20:39:31;17.60;96.60
63435;DHT22;68814;50.872;5.306;2023-08-01T20:41:58;17.50;96.30
63435;DHT22;68814;50.872;5.306;2023-08-01T20:44:23;17.50;95.60
63435;DHT22;68814;50.872;5.306;2023-08-01T20:46:49;17.50;95.30
63435;DHT22;68814;50.872;5.306;2023-08-01T20:49:15;17.40;94.50
63435;DHT22;68814;50.872;5.306;2023-08-01T20:51:41;17.40;94.70
63435;DHT22;68814;50.872;5.306;2023-08-01T20:54:06;17.40;94.50
63435;DHT22;68814;50.872;5.306;2023-08-01T20:56:32;17.40;94.00
63435;DHT22;68814;50.872;5.306;2023-08-01T20:58:58;17.40;93.90
63435;DHT22;68814;50.872;5.306;2023-08-01T21:01:24;17.40;93.70
63435;DHT22;68814;50.872;5.306;2023-08-01T21:03:49;17.40;93.80
63435;DHT22;68814;50.872;5.306;2023-08-01T21:06:16;17.40;93.50
63435;DHT22;68814;50.872;5.306;2023-08-01T21:08:42;17.40;93.60
63435;DHT22;68814;50.872;5.306;2023-08-01T21:11:15;17.30;93.80
63435;DHT22;68814;50.872;5.306;2023-08-01T21:13:42;17.30;93.80
63435;DHT22;68814;50.872;5.306;2023-08-01T21:16:14;17.30;94.10
63435;DHT22;68814;50.872;5.306;2023-08-01T21:18:40;17.20;94.40
63435;DHT22;68814;50.872;5.306;2023-08-01T21:21:09;17.20;94.60
63435;DHT22;68814;50.872;5.306;2023-08-01T21:23:35;17.20;94.80
63435;DHT22;68814;50.872;5.306;2023-08-01T21:26:02;17.10;95.00
63435;DHT22;68814;50.872;5.306;2023-08-01T21:28:27;17.10;95.20
63435;DHT22;68814;50.872;5.306;2023-08-01T21:30:53;17.00;95.40
63435;DHT22;68814;50.872;5.306;2023-08-01T21:33:19;16.90;95.70
63435;DHT22;68814;50.872;5.306;2023-08-01T21:35:44;16.90;96.00
63435;DHT22;68814;50.872;5.306;2023-08-01T21:38:10;16.80;96.30
63435;DHT22;68814;50.872;5.306;2023-08-01T21:40:36;16.80;96.60
63435;DHT22;68814;50.872;5.306;2023-08-01T21:43:03;16.70;96.80
63435;DHT22;68814;50.872;5.306;2023-08-01T21:45:28;16.60;97.10
63435;DHT22;68814;50.872;5.306;2023-08-01T21:47:55;16.60;97.30
63435;DHT22;68814;50.872;5.306;2023-08-01T21:50:21;16.50;97.50
63435;DHT22;68814;50.872;5.306;2023-08-01T21:52:47;16.50;97.70
63435;DHT22;68814;50.872;5.306;2023-08-01T21:55:13;16.40;98.10
63435;DHT22;68814;50.872;5.306;2023-08-01T21:57:39;16.40;98.00
63435;DHT22;68814;50.872;5.306;2023-08-01T22:00:05;16.40;98.10
63435;DHT22;68814;50.872;5.306;2023-08-01T22:02:36;16.30;98.20